Purdys, New York
Current Conditions -  °F | °C
As of 2:53 AM on Friday 24 Oct 2014 (Local Time) from KDXR Reporting Station
Overcast Overcast  
Wind Chill: 44°   Ceiling: 1100
Heat Index: 48°   Visibility: 10mi
Dew Point: 43°   Wind: 8mph
Humidity: 83%   Direction: 340°NNW
Pressure: 29.77"   Gusts: NA
Location:  41.33°N, 73.66°W
Report Text: KDXR 240653Z AUTO 34007KT 10SM OVC011 09/06 A2977 RMK AO2 RAE15 SLP080 P0001 T00890061
Loading
Personal Weather Stations






























Interactive Weather Map
Tropical Storm Tracking
New forecast layout! Learn more

10-Day Weather Forecast

Advertisements
Track Severe Weather on mobile